sensor_id;sensor_type;location;lat;lon;timestamp;pressure;altitude;pressure_sealevel;temperature;humidity
6829;BME280;17930;48.592;8.868;2023-08-20T00:01:26;97110.25;;;21.36;100.00
6829;BME280;17930;48.592;8.868;2023-08-20T00:03:53;97106.88;;;21.15;100.00
6829;BME280;17930;48.592;8.868;2023-08-20T00:06:22;97119.50;;;21.06;100.00
6829;BME280;17930;48.592;8.868;2023-08-20T00:08:49;97125.44;;;21.03;100.00
6829;BME280;17930;48.592;8.868;2023-08-20T00:11:18;97119.56;;;20.98;100.00
6829;BME280;17930;48.592;8.868;2023-08-20T00:13:46;97127.63;;;20.89;100.00
6829;BME280;17930;48.592;8.868;2023-08-20T00:16:14;97129.56;;;20.80;100.00
6829;BME280;17930;48.592;8.868;2023-08-20T00:18:42;97130.69;;;20.79;100.00
6829;BME280;17930;48.592;8.868;2023-08-20T00:21:09;97130.69;;;20.79;100.00
6829;BME280;17930;48.592;8.868;2023-08-20T00:23:36;97121.34;;;20.73;100.00
6829;BME280;17930;48.592;8.868;2023-08-20T00:26:04;97124.19;;;20.68;100.00
6829;BME280;17930;48.592;8.868;2023-08-20T00:28:32;97121.25;;;20.70;100.00
6829;BME280;17930;48.592;8.868;2023-08-20T00:31:00;97129.47;;;20.77;100.00
6829;BME280;17930;48.592;8.868;2023-08-20T00:33:27;97135.59;;;20.89;100.00
6829;BME280;17930;48.592;8.868;2023-08-20T00:35:54;97132.28;;;20.92;100.00
6829;BME280;17930;48.592;8.868;2023-08-20T00:38:21;97138.44;;;20.84;100.00
6829;BME280;17930;48.592;8.868;2023-08-20T00:40:47;97131.34;;;20.76;100.00
6829;BME280;17930;48.592;8.868;2023-08-20T00:43:14;97131.81;;;20.90;100.00
6829;BME280;17930;48.592;8.868;2023-08-20T00:45:42;97130.13;;;20.86;100.00
6829;BME280;17930;48.592;8.868;2023-08-20T00:48:10;97119.63;;;20.77;100.00
6829;BME280;17930;48.592;8.868;2023-08-20T00:50:38;97130.44;;;20.72;100.00
6829;BME280;17930;48.592;8.868;2023-08-20T00:53:05;97131.09;;;20.69;100.00
6829;BME280;17930;48.592;8.868;2023-08-20T00:55:33;97130.16;;;20.65;100.00
6829;BME280;17930;48.592;8.868;2023-08-20T00:58:00;97130.75;;;20.71;100.00
6829;BME280;17930;48.592;8.868;2023-08-20T01:00:27;97137.16;;;20.70;100.00
6829;BME280;17930;48.592;8.868;2023-08-20T01:02:55;97136.06;;;20.71;100.00
6829;BME280;17930;48.592;8.868;2023-08-20T01:05:22;97134.19;;;20.71;100.00
6829;BME280;17930;48.592;8.868;2023-08-20T01:07:58;97129.97;;;20.70;100.00
6829;BME280;17930;48.592;8.868;2023-08-20T01:10:34;97123.72;;;20.66;100.00
6829;BME280;17930;48.592;8.868;2023-08-20T01:13:04;97137.41;;;20.77;100.00
6829;BME280;17930;48.592;8.868;2023-08-20T01:15:31;97126.91;;;20.80;100.00
6829;BME280;17930;48.592;8.868;2023-08-20T01:17:59;97139.75;;;20.78;100.00
6829;BME280;17930;48.592;8.868;2023-08-20T01:20:31;97127.56;;;20.77;100.00
6829;BME280;17930;48.592;8.868;2023-08-20T01:23:33;97136.22;;;20.66;100.00
6829;BME280;17930;48.592;8.868;2023-08-20T01:26:14;97132.31;;;20.52;100.00
6829;BME280;17930;48.592;8.868;2023-08-20T01:28:47;97128.34;;;20.57;100.00
6829;BME280;17930;48.592;8.868;2023-08-20T01:31:14;97133.00;;;20.60;100.00
6829;BME280;17930;48.592;8.868;2023-08-20T01:33:42;97114.50;;;20.52;100.00
6829;BME280;17930;48.592;8.868;2023-08-20T01:36:08;97132.47;;;20.67;100.00
6829;BME280;17930;48.592;8.868;2023-08-20T01:38:36;97126.16;;;20.59;100.00
6829;BME280;17930;48.592;8.868;2023-08-20T01:41:03;97134.94;;;20.52;100.00
6829;BME280;17930;48.592;8.868;2023-08-20T01:43:30;97133.59;;;20.46;100.00
6829;BME280;17930;48.592;8.868;2023-08-20T01:45:59;97122.53;;;20.44;100.00
6829;BME280;17930;48.592;8.868;2023-08-20T01:48:26;97134.94;;;20.52;100.00
6829;BME280;17930;48.592;8.868;2023-08-20T01:50:53;97135.47;;;20.45;100.00
6829;BME280;17930;48.592;8.868;2023-08-20T01:53:21;97125.41;;;20.39;100.00
6829;BME280;17930;48.592;8.868;2023-08-20T01:55:50;97142.31;;;20.46;100.00
6829;BME280;17930;48.592;8.868;2023-08-20T01:58:18;97127.44;;;20.54;100.00
6829;BME280;17930;48.592;8.868;2023-08-20T02:00:48;97125.00;;;20.69;100.00
6829;BME280;17930;48.592;8.868;2023-08-20T02:03:25;97129.31;;;20.53;100.00
6829;BME280;17930;48.592;8.868;2023-08-20T02:05:55;97144.78;;;20.31;100.00
6829;BME280;17930;48.592;8.868;2023-08-20T02:08:26;97143.63;;;20.20;100.00
6829;BME280;17930;48.592;8.868;2023-08-20T02:11:01;97129.38;;;20.04;100.00
6829;BME280;17930;48.592;8.868;2023-08-20T02:13:33;97140.25;;;20.11;100.00
6829;BME280;17930;48.592;8.868;2023-08-20T02:16:03;97129.38;;;20.04;100.00
6829;BME280;17930;48.592;8.868;2023-08-20T02:18:31;97134.28;;;20.14;100.00
6829;BME280;17930;48.592;8.868;2023-08-20T02:20:59;97128.28;;;20.05;100.00
6829;BME280;17930;48.592;8.868;2023-08-20T02:23:26;97122.41;;;20.00;100.00
6829;BME280;17930;48.592;8.868;2023-08-20T02:25:53;97136.72;;;19.99;100.00
6829;BME280;17930;48.592;8.868;2023-08-20T02:28:20;97137.09;;;19.89;100.00
6829;BME280;17930;48.592;8.868;2023-08-20T02:30:47;97150.19;;;19.85;100.00
6829;BME280;17930;48.592;8.868;2023-08-20T02:33:14;97144.44;;;19.83;100.00
6829;BME280;17930;48.592;8.868;2023-08-20T02:35:42;97136.03;;;19.81;100.00
6829;BME280;17930;48.592;8.868;2023-08-20T02:38:09;97129.38;;;19.75;100.00
6829;BME280;17930;48.592;8.868;2023-08-20T02:40:40;97144.19;;;19.76;100.00
6829;BME280;17930;48.592;8.868;2023-08-20T02:43:08;97144.91;;;19.85;100.00
6829;BME280;17930;48.592;8.868;2023-08-20T02:45:40;97141.06;;;19.74;100.00
6829;BME280;17930;48.592;8.868;2023-08-20T02:48:08;97153.72;;;19.60;100.00
6829;BME280;17930;48.592;8.868;2023-08-20T02:50:37;97155.41;;;19.73;100.00
6829;BME280;17930;48.592;8.868;2023-08-20T02:53:05;97133.03;;;19.62;100.00
6829;BME280;17930;48.592;8.868;2023-08-20T02:55:34;97147.34;;;19.61;100.00
6829;BME280;17930;48.592;8.868;2023-08-20T02:58:01;97151.09;;;19.60;100.00
6829;BME280;17930;48.592;8.868;2023-08-20T03:00:30;97140.28;;;19.45;100.00
6829;BME280;17930;48.592;8.868;2023-08-20T03:02:57;97141.78;;;19.54;100.00
6829;BME280;17930;48.592;8.868;2023-08-20T03:05:24;97137.59;;;19.53;100.00
6829;BME280;17930;48.592;8.868;2023-08-20T03:07:51;97140.59;;;19.44;100.00
6829;BME280;17930;48.592;8.868;2023-08-20T03:10:20;97132.66;;;19.44;100.00
6829;BME280;17930;48.592;8.868;2023-08-20T03:12:47;97139.41;;;19.61;100.00
6829;BME280;17930;48.592;8.868;2023-08-20T03:15:14;97144.91;;;19.85;100.00
6829;BME280;17930;48.592;8.868;2023-08-20T03:17:40;97127.78;;;19.83;100.00
6829;BME280;17930;48.592;8.868;2023-08-20T03:20:09;97118.44;;;19.56;100.00
6829;BME280;17930;48.592;8.868;2023-08-20T03:22:37;97112.56;;;19.43;100.00
6829;BME280;17930;48.592;8.868;2023-08-20T03:25:04;97118.44;;;19.56;100.00
6829;BME280;17930;48.592;8.868;2023-08-20T03:27:33;97109.44;;;19.41;100.00
6829;BME280;17930;48.592;8.868;2023-08-20T03:30:01;97117.88;;;19.43;100.00
6829;BME280;17930;48.592;8.868;2023-08-20T03:32:27;97124.44;;;19.37;100.00
6829;BME280;17930;48.592;8.868;2023-08-20T03:34:54;97127.81;;;19.46;100.00
6829;BME280;17930;48.592;8.868;2023-08-20T03:37:21;97127.66;;;19.42;100.00
6829;BME280;17930;48.592;8.868;2023-08-20T03:39:48;97123.78;;;19.40;100.00
6829;BME280;17930;48.592;8.868;2023-08-20T03:42:15;97129.38;;;19.47;100.00
6829;BME280;17930;48.592;8.868;2023-08-20T03:44:43;97117.91;;;19.63;100.00
6829;BME280;17930;48.592;8.868;2023-08-20T03:47:09;97121.81;;;19.65;100.00
6829;BME280;17930;48.592;8.868;2023-08-20T03:49:37;97126.25;;;19.45;100.00
6829;BME280;17930;48.592;8.868;2023-08-20T03:52:04;97125.88;;;19.26;100.00
6829;BME280;17930;48.592;8.868;2023-08-20T03:54:32;97130.25;;;19.13;100.00
6829;BME280;17930;48.592;8.868;2023-08-20T03:56:59;97132.16;;;19.04;100.00
6829;BME280;17930;48.592;8.868;2023-08-20T03:59:26;97135.56;;;19.05;100.00
6829;BME280;17930;48.592;8.868;2023-08-20T04:01:54;97131.41;;;19.04;100.00
6829;BME280;17930;48.592;8.868;2023-08-20T04:04:21;97128.09;;;18.99;100.00
6829;BME280;17930;48.592;8.868;2023-08-20T04:06:47;97127.97;;;19.03;100.00
6829;BME280;17930;48.592;8.868;2023-08-20T04:09:15;97125.59;;;19.10;100.00
6829;BME280;17930;48.592;8.868;2023-08-20T04:11:42;97129.84;;;18.86;100.00
6829;BME280;17930;48.592;8.868;2023-08-20T04:14:09;97138.88;;;18.77;100.00
6829;BME280;17930;48.592;8.868;2023-08-20T04:16:35;97136.22;;;18.85;100.00
6829;BME280;17930;48.592;8.868;2023-08-20T04:19:04;97132.47;;;18.86;100.00
6829;BME280;17930;48.592;8.868;2023-08-20T04:21:30;97131.09;;;18.80;100.00
6829;BME280;17930;48.592;8.868;2023-08-20T04:23:57;97131.72;;;18.86;100.00
6829;BME280;17930;48.592;8.868;2023-08-20T04:26:24;97140.88;;;18.88;100.00
6829;BME280;17930;48.592;8.868;2023-08-20T04:28:51;97146.03;;;18.85;100.00
6829;BME280;17930;48.592;8.868;2023-08-20T04:31:17;97144.63;;;18.87;100.00
6829;BME280;17930;48.592;8.868;2023-08-20T04:33:45;97145.25;;;18.76;100.00
6829;BME280;17930;48.592;8.868;2023-08-20T04:36:13;97150.38;;;18.72;100.00
6829;BME280;17930;48.592;8.868;2023-08-20T04:38:40;97151.47;;;18.80;100.00
6829;BME280;17930;48.592;8.868;2023-08-20T04:41:07;97155.03;;;18.75;100.00
6829;BME280;17930;48.592;8.868;2023-08-20T04:43:33;97155.22;;;18.70;100.00
6829;BME280;17930;48.592;8.868;2023-08-20T04:46:00;97158.75;;;18.74;100.00
6829;BME280;17930;48.592;8.868;2023-08-20T04:48:27;97160.81;;;18.77;100.00
6829;BME280;17930;48.592;8.868;2023-08-20T04:50:53;97154.09;;;18.71;100.00
6829;BME280;17930;48.592;8.868;2023-08-20T04:53:21;97145.72;;;18.78;100.00
6829;BME280;17930;48.592;8.868;2023-08-20T04:55:48;97146.34;;;18.83;100.00
6829;BME280;17930;48.592;8.868;2023-08-20T04:58:15;97145.53;;;19.08;100.00
6829;BME280;17930;48.592;8.868;2023-08-20T05:00:42;97141.63;;;19.14;100.00
6829;BME280;17930;48.592;8.868;2023-08-20T05:03:12;97146.28;;;19.17;100.00
6829;BME280;17930;48.592;8.868;2023-08-20T05:05:42;97138.94;;;19.22;100.00
6829;BME280;17930;48.592;8.868;2023-08-20T05:08:09;97144.69;;;19.33;100.00
6829;BME280;17930;48.592;8.868;2023-08-20T05:10:38;97146.19;;;19.42;100.00
6829;BME280;17930;48.592;8.868;2023-08-20T05:13:05;97148.34;;;19.49;100.00
6829;BME280;17930;48.592;8.868;2023-08-20T05:15:33;97153.28;;;19.58;100.00
6829;BME280;17930;48.592;8.868;2023-08-20T05:17:59;97156.09;;;19.62;100.00
6829;BME280;17930;48.592;8.868;2023-08-20T05:20:26;97156.03;;;19.70;100.00
6829;BME280;17930;48.592;8.868;2023-08-20T05:22:53;97152.94;;;19.97;100.00
6829;BME280;17930;48.592;8.868;2023-08-20T05:25:20;97146.00;;;20.13;100.00
6829;BME280;17930;48.592;8.868;2023-08-20T05:27:48;97150.22;;;20.34;100.00
6829;BME280;17930;48.592;8.868;2023-08-20T05:30:14;97159.53;;;20.40;100.00
6829;BME280;17930;48.592;8.868;2023-08-20T05:32:41;97148.91;;;20.60;100.00
6829;BME280;17930;48.592;8.868;2023-08-20T05:35:08;97147.59;;;20.66;100.00
6829;BME280;17930;48.592;8.868;2023-08-20T05:37:35;97143.81;;;20.76;100.00
6829;BME280;17930;48.592;8.868;2023-08-20T05:40:01;97147.25;;;20.76;100.00
6829;BME280;17930;48.592;8.868;2023-08-20T05:42:28;97146.34;;;20.72;100.00
6829;BME280;17930;48.592;8.868;2023-08-20T05:44:56;97148.84;;;20.69;100.00
6829;BME280;17930;48.592;8.868;2023-08-20T05:47:23;97157.06;;;20.76;100.00
6829;BME280;17930;48.592;8.868;2023-08-20T05:49:49;97151.75;;;20.96;100.00
6829;BME280;17930;48.592;8.868;2023-08-20T05:52:16;97155.34;;;21.24;100.00
6829;BME280;17930;48.592;8.868;2023-08-20T05:54:43;97155.59;;;21.43;100.00
6829;BME280;17930;48.592;8.868;2023-08-20T05:57:09;97156.88;;;21.69;100.00
6829;BME280;17930;48.592;8.868;2023-08-20T05:59:36;97155.53;;;21.87;100.00
6829;BME280;17930;48.592;8.868;2023-08-20T06:02:04;97158.50;;;22.33;100.00
6829;BME280;17930;48.592;8.868;2023-08-20T06:04:31;97148.50;;;23.08;100.00
6829;BME280;17930;48.592;8.868;2023-08-20T06:06:58;97140.56;;;23.70;100.00
6829;BME280;17930;48.592;8.868;2023-08-20T06:09:25;97139.16;;;24.25;100.00
6829;BME280;17930;48.592;8.868;2023-08-20T06:11:51;97145.56;;;24.74;100.00
6829;BME280;17930;48.592;8.868;2023-08-20T06:14:18;97159.16;;;25.25;100.00
6829;BME280;17930;48.592;8.868;2023-08-20T06:16:45;97162.03;;;25.35;100.00
6829;BME280;17930;48.592;8.868;2023-08-20T06:19:13;97172.81;;;25.01;100.00
6829;BME280;17930;48.592;8.868;2023-08-20T06:21:40;97162.41;;;24.59;100.00
6829;BME280;17930;48.592;8.868;2023-08-20T06:24:06;97160.88;;;24.76;100.00
6829;BME280;17930;48.592;8.868;2023-08-20T06:26:34;97164.59;;;24.91;100.00
6829;BME280;17930;48.592;8.868;2023-08-20T06:29:01;97164.34;;;25.37;100.00
6829;BME280;17930;48.592;8.868;2023-08-20T06:31:28;97163.47;;;26.26;100.00
6829;BME280;17930;48.592;8.868;2023-08-20T06:33:54;97171.13;;;27.11;100.00
6829;BME280;17930;48.592;8.868;2023-08-20T06:36:22;97176.59;;;27.58;100.00
6829;BME280;17930;48.592;8.868;2023-08-20T06:38:49;97168.75;;;27.79;100.00
6829;BME280;17930;48.592;8.868;2023-08-20T06:41:15;97178.56;;;26.92;100.00
6829;BME280;17930;48.592;8.868;2023-08-20T06:43:42;97175.19;;;26.69;100.00
6829;BME280;17930;48.592;8.868;2023-08-20T06:46:09;97177.38;;;26.89;100.00
6829;BME280;17930;48.592;8.868;2023-08-20T06:48:35;97174.34;;;27.27;100.00
6829;BME280;17930;48.592;8.868;2023-08-20T06:51:08;97178.69;;;27.38;100.00
6829;BME280;17930;48.592;8.868;2023-08-20T06:53:38;97180.78;;;27.55;100.00
6829;BME280;17930;48.592;8.868;2023-08-20T06:56:06;97177.63;;;27.89;100.00
6829;BME280;17930;48.592;8.868;2023-08-20T06:58:33;97179.25;;;27.54;100.00
6829;BME280;17930;48.592;8.868;2023-08-20T07:01:00;97185.50;;;27.29;100.00
6829;BME280;17930;48.592;8.868;2023-08-20T07:03:32;97179.19;;;28.44;100.00
6829;BME280;17930;48.592;8.868;2023-08-20T07:05:59;97186.94;;;29.51;100.00
6829;BME280;17930;48.592;8.868;2023-08-20T07:08:26;97193.88;;;29.73;100.00
6829;BME280;17930;48.592;8.868;2023-08-20T07:10:54;97204.66;;;30.25;100.00
6829;BME280;17930;48.592;8.868;2023-08-20T07:13:21;97203.16;;;30.00;100.00
6829;BME280;17930;48.592;8.868;2023-08-20T07:15:48;97213.66;;;28.99;100.00
6829;BME280;17930;48.592;8.868;2023-08-20T07:18:15;97204.81;;;28.31;100.00
6829;BME280;17930;48.592;8.868;2023-08-20T07:20:41;97203.97;;;28.20;100.00
6829;BME280;17930;48.592;8.868;2023-08-20T07:23:08;97201.13;;;29.45;100.00
6829;BME280;17930;48.592;8.868;2023-08-20T07:25:36;97205.00;;;30.65;100.00
6829;BME280;17930;48.592;8.868;2023-08-20T07:28:04;97211.47;;;30.85;100.00
6829;BME280;17930;48.592;8.868;2023-08-20T07:30:31;97222.00;;;30.38;100.00
6829;BME280;17930;48.592;8.868;2023-08-20T07:32:58;97216.91;;;29.46;100.00
6829;BME280;17930;48.592;8.868;2023-08-20T07:35:24;97213.53;;;29.84;100.00
6829;BME280;17930;48.592;8.868;2023-08-20T07:37:51;97210.63;;;31.15;100.00
6829;BME280;17930;48.592;8.868;2023-08-20T07:40:18;97214.91;;;31.74;100.00
6829;BME280;17930;48.592;8.868;2023-08-20T07:42:45;97204.09;;;32.28;100.00
6829;BME280;17930;48.592;8.868;2023-08-20T07:45:13;97206.59;;;32.52;100.00
6829;BME280;17930;48.592;8.868;2023-08-20T07:47:40;97208.31;;;32.29;100.00
6829;BME280;17930;48.592;8.868;2023-08-20T07:50:07;97212.91;;;31.85;100.00
6829;BME280;17930;48.592;8.868;2023-08-20T07:52:34;97206.28;;;32.00;100.00
6829;BME280;17930;48.592;8.868;2023-08-20T07:55:01;97209.75;;;32.44;100.00
6829;BME280;17930;48.592;8.868;2023-08-20T07:57:27;97202.69;;;32.90;100.00
6829;BME280;17930;48.592;8.868;2023-08-20T07:59:54;97211.25;;;33.18;100.00
6829;BME280;17930;48.592;8.868;2023-08-20T08:02:22;97216.25;;;32.86;100.00
6829;BME280;17930;48.592;8.868;2023-08-20T08:04:49;97223.56;;;32.53;100.00
6829;BME280;17930;48.592;8.868;2023-08-20T08:07:16;97223.44;;;32.26;100.00
6829;BME280;17930;48.592;8.868;2023-08-20T08:09:44;97225.47;;;33.25;100.00
6829;BME280;17930;48.592;8.868;2023-08-20T08:12:11;97223.63;;;34.01;100.00
6829;BME280;17930;48.592;8.868;2023-08-20T08:14:38;97221.53;;;34.58;100.00
6829;BME280;17930;48.592;8.868;2023-08-20T08:17:05;97223.72;;;34.21;100.00
6829;BME280;17930;48.592;8.868;2023-08-20T08:19:34;97224.06;;;34.68;100.00
6829;BME280;17930;48.592;8.868;2023-08-20T08:22:01;97215.28;;;35.73;100.00
6829;BME280;17930;48.592;8.868;2023-08-20T08:24:28;97213.47;;;36.18;100.00
6829;BME280;17930;48.592;8.868;2023-08-20T08:26:55;97215.38;;;35.70;100.00
6829;BME280;17930;48.592;8.868;2023-08-20T08:29:22;97220.72;;;35.73;100.00
6829;BME280;17930;48.592;8.868;2023-08-20T08:31:48;97220.97;;;35.98;100.00
6829;BME280;17930;48.592;8.868;2023-08-20T08:34:15;97223.72;;;35.43;100.00
6829;BME280;17930;48.592;8.868;2023-08-20T08:36:43;97231.53;;;34.61;100.00
6829;BME280;17930;48.592;8.868;2023-08-20T08:39:10;97226.56;;;35.17;100.00
6829;BME280;17930;48.592;8.868;2023-08-20T08:41:38;97231.53;;;35.03;100.00
6829;BME280;17930;48.592;8.868;2023-08-20T08:44:08;97227.44;;;34.72;100.00
6829;BME280;17930;48.592;8.868;2023-08-20T08:46:35;97225.53;;;34.73;100.00
6829;BME280;17930;48.592;8.868;2023-08-20T08:49:03;97231.38;;;34.25;100.00
6829;BME280;17930;48.592;8.868;2023-08-20T08:51:30;97223.47;;;34.57;100.00
6829;BME280;17930;48.592;8.868;2023-08-20T08:54:00;97220.34;;;35.55;100.00
6829;BME280;17930;48.592;8.868;2023-08-20T08:56:28;97221.06;;;35.75;100.00
6829;BME280;17930;48.592;8.868;2023-08-20T08:58:54;97211.22;;;36.44;100.00
6829;BME280;17930;48.592;8.868;2023-08-20T09:01:21;97221.31;;;37.16;96.80
6829;BME280;17930;48.592;8.868;2023-08-20T09:03:48;97220.03;;;37.21;92.94
6829;BME280;17930;48.592;8.868;2023-08-20T09:06:15;97212.47;;;37.12;88.65
6829;BME280;17930;48.592;8.868;2023-08-20T09:08:42;97215.47;;;36.89;91.23
6829;BME280;17930;48.592;8.868;2023-08-20T09:11:10;97215.44;;;36.61;96.94
6829;BME280;17930;48.592;8.868;2023-08-20T09:13:38;97216.22;;;37.71;94.59
6829;BME280;17930;48.592;8.868;2023-08-20T09:16:05;97206.22;;;38.27;83.29
6829;BME280;17930;48.592;8.868;2023-08-20T09:18:33;97213.47;;;38.88;80.55
6829;BME280;17930;48.592;8.868;2023-08-20T09:20:59;97209.25;;;38.41;81.02
6829;BME280;17930;48.592;8.868;2023-08-20T09:23:28;97226.16;;;36.84;84.33
6829;BME280;17930;48.592;8.868;2023-08-20T09:25:56;97223.66;;;36.45;85.50
6829;BME280;17930;48.592;8.868;2023-08-20T09:28:24;97215.31;;;37.09;83.93
6829;BME280;17930;48.592;8.868;2023-08-20T09:30:56;97209.56;;;37.07;78.10
6829;BME280;17930;48.592;8.868;2023-08-20T09:33:23;97212.84;;;36.26;83.79
6829;BME280;17930;48.592;8.868;2023-08-20T09:35:50;97222.56;;;36.87;81.69
6829;BME280;17930;48.592;8.868;2023-08-20T09:38:19;97216.06;;;36.97;82.36
6829;BME280;17930;48.592;8.868;2023-08-20T09:40:48;97212.19;;;38.13;81.41
6829;BME280;17930;48.592;8.868;2023-08-20T09:43:16;97220.13;;;37.95;74.08
6829;BME280;17930;48.592;8.868;2023-08-20T09:45:46;97221.00;;;38.97;72.35
6829;BME280;17930;48.592;8.868;2023-08-20T09:48:18;97214.91;;;38.80;70.99
6829;BME280;17930;48.592;8.868;2023-08-20T09:50:47;97214.94;;;39.44;68.16
6829;BME280;17930;48.592;8.868;2023-08-20T09:53:22;97212.34;;;39.50;68.46
6829;BME280;17930;48.592;8.868;2023-08-20T09:55:50;97216.91;;;39.01;65.35
6829;BME280;17930;48.592;8.868;2023-08-20T09:58:18;97214.19;;;39.01;66.22
6829;BME280;17930;48.592;8.868;2023-08-20T10:00:48;97202.34;;;40.34;58.83
6829;BME280;17930;48.592;8.868;2023-08-20T10:03:17;97203.72;;;40.29;61.96
6829;BME280;17930;48.592;8.868;2023-08-20T10:05:45;97208.16;;;40.89;59.14
6829;BME280;17930;48.592;8.868;2023-08-20T10:08:17;97194.47;;;40.71;57.94
6829;BME280;17930;48.592;8.868;2023-08-20T10:10:44;97195.38;;;40.86;56.98
6829;BME280;17930;48.592;8.868;2023-08-20T10:13:13;97201.16;;;40.79;55.59
6829;BME280;17930;48.592;8.868;2023-08-20T10:15:41;97198.31;;;42.15;52.97
6829;BME280;17930;48.592;8.868;2023-08-20T10:18:10;97188.84;;;42.16;54.61
6829;BME280;17930;48.592;8.868;2023-08-20T10:20:38;97191.69;;;41.25;56.12
6829;BME280;17930;48.592;8.868;2023-08-20T10:23:06;97187.28;;;42.47;56.96
6829;BME280;17930;48.592;8.868;2023-08-20T10:25:40;97192.41;;;42.78;53.61
6829;BME280;17930;48.592;8.868;2023-08-20T10:28:12;97193.47;;;42.94;52.27
6829;BME280;17930;48.592;8.868;2023-08-20T10:31:07;97188.03;;;41.69;52.62
6829;BME280;17930;48.592;8.868;2023-08-20T10:33:37;97184.81;;;41.70;52.92
6829;BME280;17930;48.592;8.868;2023-08-20T10:36:08;97189.91;;;42.42;50.97
6829;BME280;17930;48.592;8.868;2023-08-20T10:38:36;97194.13;;;39.47;53.51
6829;BME280;17930;48.592;8.868;2023-08-20T10:41:06;97206.09;;;38.43;60.00
6829;BME280;17930;48.592;8.868;2023-08-20T10:43:34;97209.09;;;39.12;58.52
6829;BME280;17930;48.592;8.868;2023-08-20T10:46:03;97194.44;;;40.54;54.82
6829;BME280;17930;48.592;8.868;2023-08-20T10:48:30;97193.84;;;42.26;53.92
6829;BME280;17930;48.592;8.868;2023-08-20T10:51:06;97191.44;;;42.43;51.31
6829;BME280;17930;48.592;8.868;2023-08-20T10:53:33;97192.22;;;42.20;52.00
6829;BME280;17930;48.592;8.868;2023-08-20T10:56:07;97196.28;;;41.10;50.97
6829;BME280;17930;48.592;8.868;2023-08-20T10:58:34;97185.91;;;41.14;54.65
6829;BME280;17930;48.592;8.868;2023-08-20T11:01:22;97189.22;;;42.09;52.60
6829;BME280;17930;48.592;8.868;2023-08-20T11:03:50;97184.44;;;42.42;50.64
6829;BME280;17930;48.592;8.868;2023-08-20T11:06:18;97181.56;;;42.13;50.15
6829;BME280;17930;48.592;8.868;2023-08-20T11:08:45;97183.41;;;42.91;49.50
6829;BME280;17930;48.592;8.868;2023-08-20T11:11:13;97179.81;;;42.85;49.56
6829;BME280;17930;48.592;8.868;2023-08-20T11:13:39;97174.38;;;42.39;50.94
6829;BME280;17930;48.592;8.868;2023-08-20T11:16:08;97178.50;;;42.95;49.69
6829;BME280;17930;48.592;8.868;2023-08-20T11:18:35;97177.63;;;42.89;49.38
6829;BME280;17930;48.592;8.868;2023-08-20T11:21:02;97168.56;;;43.27;49.85
6829;BME280;17930;48.592;8.868;2023-08-20T11:23:31;97174.69;;;42.18;49.78
6829;BME280;17930;48.592;8.868;2023-08-20T11:25:58;97170.69;;;43.66;49.42
6829;BME280;17930;48.592;8.868;2023-08-20T11:28:26;97167.38;;;44.30;46.51
6829;BME280;17930;48.592;8.868;2023-08-20T11:30:53;97169.03;;;43.25;47.64
6829;BME280;17930;48.592;8.868;2023-08-20T11:33:21;97183.06;;;42.98;48.37
6829;BME280;17930;48.592;8.868;2023-08-20T11:35:49;97166.25;;;42.44;48.00
6829;BME280;17930;48.592;8.868;2023-08-20T11:38:16;97166.09;;;43.00;48.61
6829;BME280;17930;48.592;8.868;2023-08-20T11:40:44;97149.91;;;44.13;47.85
6829;BME280;17930;48.592;8.868;2023-08-20T11:43:11;97157.28;;;43.10;47.03
6829;BME280;17930;48.592;8.868;2023-08-20T11:45:45;97163.16;;;43.03;49.59
6829;BME280;17930;48.592;8.868;2023-08-20T11:48:13;97155.38;;;43.16;50.03
6829;BME280;17930;48.592;8.868;2023-08-20T11:50:40;97161.25;;;43.09;47.24
6829;BME280;17930;48.592;8.868;2023-08-20T11:53:08;97157.97;;;42.68;49.99
6829;BME280;17930;48.592;8.868;2023-08-20T11:55:35;97154.44;;;43.19;47.73
6829;BME280;17930;48.592;8.868;2023-08-20T11:58:03;97150.44;;;43.49;47.05
6829;BME280;17930;48.592;8.868;2023-08-20T12:00:31;97143.78;;;43.55;46.76
6829;BME280;17930;48.592;8.868;2023-08-20T12:02:58;97140.69;;;43.68;47.25
6829;BME280;17930;48.592;8.868;2023-08-20T12:05:26;97155.69;;;42.66;47.96
6829;BME280;17930;48.592;8.868;2023-08-20T12:07:58;97149.31;;;43.12;48.03
6829;BME280;17930;48.592;8.868;2023-08-20T12:10:26;97144.78;;;42.95;45.95
6829;BME280;17930;48.592;8.868;2023-08-20T12:12:54;97144.59;;;42.23;48.13
6829;BME280;17930;48.592;8.868;2023-08-20T12:15:22;97140.91;;;42.26;46.27
6829;BME280;17930;48.592;8.868;2023-08-20T12:17:57;97141.00;;;42.17;47.14
6829;BME280;17930;48.592;8.868;2023-08-20T12:20:27;97135.50;;;42.17;49.65
6829;BME280;17930;48.592;8.868;2023-08-20T12:22:54;97136.50;;;43.24;48.16
6829;BME280;17930;48.592;8.868;2023-08-20T12:25:20;97128.16;;;43.81;46.67
6829;BME280;17930;48.592;8.868;2023-08-20T12:27:47;97125.84;;;43.94;45.47
6829;BME280;17930;48.592;8.868;2023-08-20T12:30:15;97129.22;;;42.78;45.47
6829;BME280;17930;48.592;8.868;2023-08-20T12:32:43;97127.41;;;41.90;48.29
6829;BME280;17930;48.592;8.868;2023-08-20T12:35:10;97130.50;;;42.68;48.84
6829;BME280;17930;48.592;8.868;2023-08-20T12:37:36;97118.75;;;44.47;48.28
6829;BME280;17930;48.592;8.868;2023-08-20T12:40:04;97116.50;;;44.71;45.28
6829;BME280;17930;48.592;8.868;2023-08-20T12:42:36;97123.31;;;44.10;46.16
6829;BME280;17930;48.592;8.868;2023-08-20T12:45:05;97129.47;;;42.79;46.34
6829;BME280;17930;48.592;8.868;2023-08-20T12:47:32;97103.59;;;43.97;45.69
6829;BME280;17930;48.592;8.868;2023-08-20T12:50:00;97109.09;;;43.29;47.63
6829;BME280;17930;48.592;8.868;2023-08-20T12:52:26;97112.09;;;44.14;47.14
6829;BME280;17930;48.592;8.868;2023-08-20T12:54:53;97106.34;;;44.37;49.22
6829;BME280;17930;48.592;8.868;2023-08-20T12:57:20;97100.91;;;44.03;46.60
6829;BME280;17930;48.592;8.868;2023-08-20T12:59:46;97099.03;;;44.54;45.64
6829;BME280;17930;48.592;8.868;2023-08-20T13:02:13;97094.63;;;45.54;47.01
6829;BME280;17930;48.592;8.868;2023-08-20T13:04:41;97088.56;;;45.86;46.95
6829;BME280;17930;48.592;8.868;2023-08-20T13:07:10;97098.88;;;44.63;47.38